createdAt,value
2022-12-15T00:02:31.210Z,56.27
2022-12-15T00:07:51.190Z,47.33
2022-12-15T00:13:08.614Z,60.27
2022-12-15T00:18:25.904Z,54.80
2022-12-15T00:23:45.785Z,49.93
2022-12-15T00:29:03.114Z,48.60
2022-12-15T00:34:20.787Z,50.33
2022-12-15T00:39:28.238Z,45.00
2022-12-15T00:44:33.192Z,49.93
2022-12-15T00:49:50.576Z,43.17
2022-12-15T00:55:10.533Z,43.13
2022-12-15T01:00:29.083Z,42.40
2022-12-15T01:05:48.451Z,42.20
2022-12-15T01:11:08.509Z,44.57
2022-12-15T01:16:27.908Z,47.90
2022-12-15T01:21:34.802Z,42.30
2022-12-15T01:26:42.353Z,41.93
2022-12-15T01:31:50.030Z,41.90
2022-12-15T01:36:55.461Z,43.03
2022-12-15T01:42:02.986Z,40.87
2022-12-15T01:47:08.661Z,45.40
2022-12-15T01:52:13.910Z,43.70
2022-12-15T01:57:25.751Z,40.30
2022-12-15T02:02:38.292Z,40.73
2022-12-15T02:07:45.219Z,46.40
2022-12-15T02:13:01.767Z,40.43
2022-12-15T02:18:17.668Z,44.97
2022-12-15T02:23:48.498Z,43.83
2022-12-15T02:29:10.048Z,40.43
2022-12-15T02:34:25.810Z,44.00
2022-12-15T02:39:30.749Z,43.23
2022-12-15T02:44:41.205Z,44.03
2022-12-15T02:50:03.876Z,46.20
2022-12-15T02:55:18.704Z,45.00
2022-12-15T03:00:24.313Z,44.53
2022-12-15T03:05:34.792Z,49.07
2022-12-15T03:10:39.751Z,47.50
2022-12-15T03:15:44.836Z,49.77
2022-12-15T03:20:52.300Z,48.93
2022-12-15T03:25:57.253Z,58.57
2022-12-15T03:31:02.204Z,53.73
2022-12-15T03:36:10.885Z,49.87
2022-12-15T03:41:20.137Z,48.90
2022-12-15T03:46:25.101Z,52.27
2022-12-15T03:51:32.646Z,48.90
2022-12-15T03:56:37.759Z,50.43
2022-12-15T04:01:49.812Z,43.63
2022-12-15T04:06:57.535Z,42.67
2022-12-15T04:12:03.380Z,47.07
2022-12-15T04:17:08.577Z,51.03
2022-12-15T04:22:18.054Z,45.77
2022-12-15T04:27:35.772Z,44.83
2022-12-15T04:32:53.053Z,46.83
2022-12-15T04:38:13.208Z,42.63
2022-12-15T04:43:30.871Z,43.47
2022-12-15T04:48:51.630Z,42.33
2022-12-15T04:54:11.616Z,44.77
2022-12-15T04:59:31.551Z,40.03
2022-12-15T05:04:49.640Z,44.47
2022-12-15T05:10:14.937Z,46.10
2022-12-15T05:15:32.624Z,39.77
2022-12-15T05:20:50.316Z,38.57
2022-12-15T05:26:10.288Z,41.20
2022-12-15T05:31:27.982Z,42.07
2022-12-15T05:36:33.982Z,42.90
2022-12-15T05:41:41.621Z,49.00
2022-12-15T05:46:47.270Z,49.70
2022-12-15T05:51:53.820Z,46.53
2022-12-15T05:57:01.277Z,46.90
2022-12-15T06:02:06.263Z,50.47
2022-12-15T06:07:11.330Z,47.10
2022-12-15T06:12:19.383Z,59.73
2022-12-15T06:17:24.935Z,54.43
2022-12-15T06:22:31.909Z,76.70
2022-12-15T06:27:41.380Z,66.93
2022-12-15T06:32:46.548Z,60.37
2022-12-15T06:37:55.054Z,75.70
2022-12-15T06:43:02.611Z,40.57
2022-12-15T06:48:08.414Z,49.20
2022-12-15T06:53:13.335Z,60.93
2022-12-15T06:58:21.245Z,49.30
2022-12-15T07:03:28.754Z,59.87
2022-12-15T07:08:40.943Z,77.60
2022-12-15T07:13:52.693Z,90.97
2022-12-15T07:18:57.673Z,53.30
2022-12-15T07:24:03.427Z,50.83
2022-12-15T07:29:13.436Z,101.07
2022-12-15T07:34:25.890Z,45.63
2022-12-15T07:39:33.006Z,44.40
2022-12-15T07:44:42.971Z,45.03
2022-12-15T07:49:47.982Z,43.70
2022-12-15T07:54:53.242Z,42.00
2022-12-15T08:00:00.724Z,47.17
2022-12-15T08:05:08.097Z,49.43
2022-12-15T08:10:15.185Z,45.50
2022-12-15T08:15:22.950Z,48.83
2022-12-15T08:20:29.013Z,42.60
2022-12-15T08:25:33.970Z,49.50
2022-12-15T08:30:43.792Z,42.37
2022-12-15T08:35:56.650Z,46.50
2022-12-15T08:41:11.560Z,41.97
2022-12-15T08:46:20.086Z,57.43
2022-12-15T08:51:26.896Z,45.47
2022-12-15T08:56:32.589Z,46.07
2022-12-15T09:01:40.819Z,48.20
2022-12-15T09:06:48.492Z,49.73
2022-12-15T09:11:55.861Z,46.93
2022-12-15T09:17:04.470Z,58.70
2022-12-15T09:22:10.666Z,56.57
2022-12-15T09:27:15.752Z,46.10
2022-12-15T09:32:44.802Z,41.97
2022-12-15T09:37:58.506Z,44.07
2022-12-15T09:43:33.316Z,37.93
2022-12-15T09:48:54.146Z,37.90
2022-12-15T10:06:22.717Z,39.73
2022-12-15T10:12:10.748Z,43.80
2022-12-15T10:18:02.442Z,41.13
2022-12-15T10:24:04.680Z,35.80
2022-12-15T10:30:06.781Z,37.93
2022-12-15T10:35:18.925Z,35.60
2022-12-15T10:46:22.168Z,35.47
2022-12-15T10:51:33.055Z,36.13
2022-12-15T10:56:50.535Z,31.57
2022-12-15T11:02:33.482Z,35.47
2022-12-15T11:07:43.139Z,31.93
2022-12-15T11:12:59.614Z,19.47
2022-12-15T11:18:18.947Z,19.13
2022-12-15T11:23:31.850Z,16.53
2022-12-15T11:28:49.837Z,13.97
2022-12-15T11:34:00.964Z,17.33
2022-12-15T11:39:16.960Z,16.30
2022-12-15T11:44:29.305Z,15.90
2022-12-15T11:50:18.743Z,18.37
2022-12-15T11:55:43.140Z,18.30
2022-12-15T12:00:58.703Z,16.10
2022-12-15T12:06:13.887Z,15.70
2022-12-15T12:11:26.723Z,16.80
2022-12-15T12:16:45.504Z,14.60
2022-12-15T12:21:56.979Z,13.60
2022-12-15T12:27:09.689Z,14.90
2022-12-15T12:32:22.384Z,16.07
2022-12-15T12:37:34.149Z,14.90
2022-12-15T12:42:48.224Z,16.47
2022-12-15T12:48:00.233Z,16.93
2022-12-15T12:53:11.499Z,18.97
2022-12-15T12:58:37.966Z,20.50
2022-12-15T13:03:44.553Z,19.40
2022-12-15T13:08:55.907Z,19.20
2022-12-15T13:14:10.592Z,19.47
2022-12-15T13:19:59.844Z,18.73
2022-12-15T13:25:09.402Z,19.73
2022-12-15T13:30:20.973Z,22.20
2022-12-15T13:35:31.704Z,22.70
2022-12-15T13:41:09.294Z,26.67
2022-12-15T13:46:23.689Z,26.90
2022-12-15T13:51:35.896Z,23.20
2022-12-15T13:56:56.486Z,29.70
2022-12-15T14:02:04.379Z,23.30
2022-12-15T14:07:10.604Z,25.90
2022-12-15T14:12:17.948Z,28.37
2022-12-15T14:17:33.999Z,33.80
2022-12-15T14:22:41.354Z,31.13
2022-12-15T14:27:50.848Z,28.73
2022-12-15T14:33:04.619Z,32.70
2022-12-15T14:38:13.059Z,29.97
2022-12-15T14:43:25.691Z,31.87
2022-12-15T14:48:41.729Z,40.10
2022-12-15T14:53:53.312Z,33.10
2022-12-15T14:59:04.002Z,30.90
2022-12-15T15:03:11.972Z,36.67
2022-12-15T15:04:29.273Z,35.20
2022-12-15T15:09:35.904Z,33.80
2022-12-15T15:14:45.122Z,35.37
2022-12-15T15:19:56.236Z,29.90
2022-12-15T15:25:01.423Z,39.00
2022-12-15T15:30:19.142Z,38.70
2022-12-15T15:35:33.755Z,42.93
2022-12-15T15:40:38.990Z,56.23
2022-12-15T15:45:45.123Z,51.47
2022-12-15T15:50:53.492Z,44.50
2022-12-15T15:55:58.566Z,34.97
2022-12-15T16:01:08.079Z,41.87
2022-12-15T16:06:24.287Z,52.87
2022-12-15T16:11:32.645Z,48.10
2022-12-15T16:16:38.128Z,49.73
2022-12-15T16:21:50.843Z,47.47
2022-12-15T16:26:55.889Z,43.57
2022-12-15T16:32:00.976Z,50.70
2022-12-15T16:37:13.463Z,45.20
2022-12-15T16:42:18.339Z,46.87
2022-12-15T16:47:24.506Z,59.77
2022-12-15T16:52:32.068Z,59.47
2022-12-15T16:57:37.003Z,50.03
2022-12-15T17:02:42.662Z,51.73
2022-12-15T17:07:54.146Z,54.53
2022-12-15T17:13:06.176Z,45.60
2022-12-15T17:18:16.994Z,49.60
2022-12-15T17:23:25.839Z,52.57
2022-12-15T17:28:36.702Z,47.13
2022-12-15T17:33:42.966Z,59.97
2022-12-15T17:38:53.324Z,52.80
2022-12-15T17:44:31.585Z,58.60
2022-12-15T17:49:33.052Z,57.37
2022-12-15T17:54:43.611Z,65.30
2022-12-15T17:59:48.552Z,63.97
2022-12-15T18:04:55.600Z,62.60
2022-12-15T18:10:04.015Z,68.60
2022-12-15T18:15:20.166Z,70.80
2022-12-15T18:20:26.235Z,63.00
2022-12-15T18:25:33.807Z,62.73
2022-12-15T18:30:38.916Z,61.33
2022-12-15T18:35:45.566Z,61.10
2022-12-15T18:40:57.158Z,72.07
2022-12-15T18:46:03.801Z,65.90
2022-12-15T18:51:21.134Z,69.03
2022-12-15T18:56:32.412Z,77.83
2022-12-15T19:01:39.231Z,75.20
2022-12-15T19:06:44.829Z,74.87
2022-12-15T19:12:05.663Z,81.47
2022-12-15T19:17:26.765Z,71.73
2022-12-15T19:22:32.478Z,70.00
2022-12-15T19:27:41.177Z,71.07
2022-12-15T19:32:52.225Z,65.40
2022-12-15T19:38:03.096Z,64.83
2022-12-15T19:43:16.094Z,64.00
2022-12-15T19:48:24.376Z,66.07
2022-12-15T19:53:32.933Z,63.77
2022-12-15T19:58:41.883Z,72.63
2022-12-15T20:03:49.210Z,68.83
2022-12-15T20:09:00.025Z,64.60
2022-12-15T20:14:14.090Z,69.90
2022-12-15T20:19:20.320Z,69.57
2022-12-15T20:24:26.100Z,67.50
2022-12-15T20:29:36.315Z,73.57
2022-12-15T20:34:44.030Z,71.83
2022-12-15T20:39:57.005Z,71.47
2022-12-15T20:45:05.404Z,76.57
2022-12-15T20:50:25.869Z,71.33
2022-12-15T20:55:31.741Z,73.37
2022-12-15T21:00:39.390Z,73.17
2022-12-15T21:05:50.378Z,70.37
2022-12-15T21:10:56.652Z,65.73
2022-12-15T21:16:04.273Z,69.90
2022-12-15T21:21:18.941Z,71.53
2022-12-15T21:26:27.206Z,65.60
2022-12-15T21:31:35.795Z,66.93
2022-12-15T21:36:43.062Z,63.57
2022-12-15T21:41:48.108Z,72.87
2022-12-15T21:46:55.789Z,66.00
2022-12-15T21:52:03.621Z,63.53
2022-12-15T21:57:14.317Z,62.03
2022-12-15T22:02:29.141Z,67.40
2022-12-15T22:07:34.525Z,72.50
2022-12-15T22:12:40.156Z,69.07
2022-12-15T22:17:48.158Z,65.97
2022-12-15T22:22:53.557Z,62.03
2022-12-15T22:27:59.892Z,69.80
2022-12-15T22:33:21.687Z,64.37
2022-12-15T22:38:27.082Z,58.27
2022-12-15T22:43:38.712Z,56.30
2022-12-15T22:48:48.794Z,65.37
2022-12-15T22:53:53.740Z,56.37
2022-12-15T22:59:05.381Z,59.47
2022-12-15T23:04:13.279Z,55.50
2022-12-15T23:09:18.108Z,60.47
2022-12-15T23:14:43.036Z,62.73
2022-12-15T23:19:50.658Z,63.93
2022-12-15T23:24:56.718Z,58.10
2022-12-15T23:30:03.137Z,55.57
2022-12-15T23:35:12.786Z,59.97
2022-12-15T23:40:21.468Z,60.00
2022-12-15T23:45:26.411Z,62.33
2022-12-15T23:50:34.231Z,53.27
2022-12-15T23:55:39.326Z,58.50
